createdAt,value
2018-01-20T00:00:04.336Z,4.20
2018-01-20T00:02:32.077Z,5.80
2018-01-20T00:04:59.685Z,3.07
2018-01-20T00:07:27.259Z,3.63
2018-01-20T00:10:06.677Z,3.33
2018-01-20T00:12:34.311Z,4.13
2018-01-20T00:15:01.913Z,3.30
2018-01-20T00:17:29.513Z,4.13
2018-01-20T00:19:57.129Z,4.40
2018-01-20T00:22:24.717Z,3.63
2018-01-20T00:24:57.779Z,3.90
2018-01-20T00:27:25.373Z,5.13
2018-01-20T00:29:52.956Z,5.80
2018-01-20T00:32:20.536Z,5.33
2018-01-20T00:34:48.100Z,4.83
2018-01-20T00:37:15.694Z,4.70
2018-01-20T00:39:43.301Z,4.33
2018-01-20T00:42:10.979Z,4.83
2018-01-20T00:44:38.525Z,3.80
2018-01-20T00:47:06.217Z,3.93
2018-01-20T00:49:33.787Z,4.40
2018-01-20T00:52:01.363Z,6.43
2018-01-20T00:54:28.925Z,4.30
2018-01-20T00:56:56.497Z,3.80
2018-01-20T00:59:24.114Z,3.00
2018-01-20T01:01:51.676Z,3.10
2018-01-20T01:04:19.263Z,3.67
2018-01-20T01:06:46.896Z,3.70
2018-01-20T01:09:14.441Z,3.20
2018-01-20T01:11:42.014Z,6.60
2018-01-20T01:14:09.588Z,6.40
2018-01-20T01:16:37.143Z,4.20
2018-01-20T01:19:05.002Z,3.90
2018-01-20T01:21:32.592Z,3.40
2018-01-20T01:24:00.156Z,4.33
2018-01-20T01:26:27.719Z,5.23
2018-01-20T01:28:55.289Z,4.17
2018-01-20T01:31:23.326Z,4.90
2018-01-20T01:33:51.072Z,4.30
2018-01-20T01:36:18.809Z,3.43
2018-01-20T01:38:47.366Z,3.90
2018-01-20T01:41:21.604Z,3.70
2018-01-20T01:43:49.217Z,3.77
2018-01-20T01:46:16.994Z,4.63
2018-01-20T01:48:44.617Z,4.57
2018-01-20T01:51:12.175Z,4.80
2018-01-20T01:53:39.727Z,4.20
2018-01-20T01:56:07.362Z,5.63
2018-01-20T01:58:35.335Z,5.53
2018-01-20T02:01:03.319Z,4.63
2018-01-20T02:03:30.877Z,4.20
2018-01-20T02:05:58.455Z,3.93
2018-01-20T02:08:26.018Z,4.50
2018-01-20T02:10:53.595Z,4.03
2018-01-20T02:13:21.165Z,7.90
2018-01-20T02:15:48.713Z,4.77
2018-01-20T02:18:16.304Z,5.43
2018-01-20T02:20:43.966Z,5.23
2018-01-20T02:23:12.218Z,4.87
2018-01-20T02:25:39.795Z,5.03
2018-01-20T02:28:07.617Z,5.53
2018-01-20T02:30:35.183Z,4.73
2018-01-20T02:33:02.775Z,6.40
2018-01-20T02:35:30.330Z,4.80
2018-01-20T02:37:58.838Z,4.90
2018-01-20T02:40:26.456Z,3.43
2018-01-20T02:42:56.194Z,3.73
2018-01-20T02:45:30.548Z,4.13
2018-01-20T02:47:58.140Z,4.20
2018-01-20T02:50:25.726Z,24.00
2018-01-20T02:52:53.312Z,16.90
2018-01-20T02:55:21.105Z,9.73
2018-01-20T02:57:48.724Z,7.80
2018-01-20T03:00:16.257Z,15.10
2018-01-20T03:02:43.853Z,10.80
2018-01-20T03:05:11.707Z,6.83
2018-01-20T03:07:41.241Z,5.10
2018-01-20T03:10:09.193Z,5.77
2018-01-20T03:12:39.956Z,4.50
2018-01-20T03:15:11.118Z,4.00
2018-01-20T03:17:44.502Z,4.60
2018-01-20T03:20:17.486Z,4.53
2018-01-20T03:22:45.038Z,4.63
2018-01-20T03:25:12.645Z,5.37
2018-01-20T03:27:40.338Z,5.93
2018-01-20T03:30:07.978Z,6.20
2018-01-20T03:32:36.426Z,6.97
2018-01-20T03:35:04.086Z,6.17
2018-01-20T03:37:31.867Z,6.90
2018-01-20T03:40:01.359Z,7.20
2018-01-20T03:42:28.979Z,6.73
2018-01-20T03:44:56.659Z,7.43
2018-01-20T03:47:25.117Z,19.87
2018-01-20T03:49:52.771Z,12.47
2018-01-20T03:52:20.392Z,6.77
2018-01-20T03:54:47.940Z,6.30
2018-01-20T03:57:16.278Z,3.77
2018-01-20T03:59:43.973Z,3.20
2018-01-20T04:02:14.188Z,3.93
2018-01-20T04:04:45.472Z,3.23
2018-01-20T04:07:14.337Z,3.13
2018-01-20T04:09:41.946Z,2.83
2018-01-20T04:12:09.730Z,3.73
2018-01-20T04:17:09.664Z,4.20
2018-01-20T04:19:37.243Z,3.20
2018-01-20T04:22:04.870Z,5.20
2018-01-20T04:24:32.446Z,3.90
2018-01-20T04:27:00.014Z,3.60
2018-01-20T04:29:27.898Z,5.23
2018-01-20T04:31:55.654Z,3.50
2018-01-20T04:34:23.275Z,4.13
2018-01-20T04:36:50.858Z,8.30
2018-01-20T04:39:18.501Z,7.03
2018-01-20T04:41:46.070Z,7.57
2018-01-20T04:44:13.648Z,5.90
2018-01-20T04:46:41.212Z,4.80
2018-01-20T04:49:09.109Z,3.80
2018-01-20T04:51:36.893Z,4.80
2018-01-20T04:54:04.711Z,5.10
2018-01-20T04:56:32.324Z,4.33
2018-01-20T04:58:59.876Z,6.03
2018-01-20T05:01:27.417Z,5.33
2018-01-20T05:03:55.026Z,6.60
2018-01-20T05:06:23.641Z,5.80
2018-01-20T05:08:51.191Z,4.37
2018-01-20T05:11:18.796Z,5.63
2018-01-20T05:13:46.384Z,5.27
2018-01-20T05:16:14.071Z,5.30
2018-01-20T05:18:41.674Z,5.27
2018-01-20T05:21:09.500Z,5.87
2018-01-20T05:23:37.073Z,3.97
2018-01-20T05:26:04.694Z,3.70
2018-01-20T05:28:32.280Z,4.70
2018-01-20T05:30:59.850Z,6.50
2018-01-20T05:33:27.491Z,4.13
2018-01-20T05:35:55.072Z,3.30
2018-01-20T05:38:22.972Z,3.90
2018-01-20T05:40:50.601Z,4.77
2018-01-20T05:43:18.153Z,4.30
2018-01-20T05:45:45.719Z,3.07
2018-01-20T05:48:13.322Z,4.27
2018-01-20T05:50:40.895Z,3.90
2018-01-20T05:53:08.867Z,3.97
2018-01-20T05:55:36.477Z,3.97
2018-01-20T05:58:04.053Z,4.90
2018-01-20T06:00:31.612Z,7.60
2018-01-20T06:02:59.162Z,4.83
2018-01-20T06:05:26.776Z,5.40
2018-01-20T06:07:54.375Z,5.40
2018-01-20T06:10:21.934Z,6.20
2018-01-20T06:12:49.731Z,7.00
2018-01-20T06:15:17.324Z,6.33
2018-01-20T06:17:46.387Z,9.10
2018-01-20T06:20:13.994Z,8.53
2018-01-20T06:22:41.561Z,6.63
2018-01-20T06:25:09.420Z,7.70
2018-01-20T06:27:37.573Z,6.73
2018-01-20T06:30:05.156Z,7.43
2018-01-20T06:32:32.749Z,10.07
2018-01-20T06:35:00.405Z,7.70
2018-01-20T06:37:28.340Z,7.57
2018-01-20T06:39:55.887Z,7.10
2018-01-20T06:42:24.757Z,5.73
2018-01-20T06:44:52.347Z,8.17
2018-01-20T06:47:20.245Z,8.50
2018-01-20T06:49:47.804Z,7.33
2018-01-20T06:52:15.390Z,6.27
2018-01-20T06:54:43.361Z,6.07
2018-01-20T06:57:11.270Z,5.20
2018-01-20T06:59:38.860Z,6.43
2018-01-20T07:02:07.347Z,7.83
2018-01-20T07:04:34.916Z,8.00
2018-01-20T07:07:02.523Z,8.47
2018-01-20T07:09:30.120Z,7.37
2018-01-20T07:11:57.743Z,7.53
2018-01-20T07:14:25.314Z,7.10
2018-01-20T07:16:53.375Z,7.13
2018-01-20T07:19:20.960Z,5.90
2018-01-20T07:21:50.851Z,6.90
2018-01-20T07:24:18.544Z,5.90
2018-01-20T07:29:38.965Z,4.37
2018-01-20T07:32:06.905Z,5.60
2018-01-20T07:34:34.466Z,3.83
2018-01-20T07:37:02.020Z,4.47
2018-01-20T07:39:29.867Z,3.67
2018-01-20T07:41:57.436Z,3.73
2018-01-20T07:44:25.014Z,4.60
2018-01-20T07:46:52.592Z,3.73
2018-01-20T07:49:20.157Z,4.17
2018-01-20T07:51:47.694Z,4.00
2018-01-20T07:54:15.573Z,3.90
2018-01-20T07:56:43.168Z,4.50
2018-01-20T07:59:10.825Z,4.33
2018-01-20T08:01:38.616Z,4.30
2018-01-20T08:04:06.184Z,4.00
2018-01-20T08:06:33.739Z,5.50
2018-01-20T08:09:01.295Z,3.97
2018-01-20T08:11:29.172Z,3.50
2018-01-20T08:13:57.020Z,15.03
2018-01-20T08:16:24.791Z,4.67
2018-01-20T08:18:52.353Z,5.50
2018-01-20T08:21:19.915Z,3.90
2018-01-20T08:23:47.497Z,4.20
2018-01-20T08:26:15.093Z,3.30
2018-01-20T08:28:42.664Z,3.90
2018-01-20T08:31:10.709Z,3.57
2018-01-20T08:33:53.982Z,4.00
2018-01-20T08:36:21.576Z,4.17
2018-01-20T08:38:49.165Z,4.00
2018-01-20T08:41:16.835Z,4.17
2018-01-20T08:43:44.529Z,3.30
2018-01-20T08:46:12.127Z,3.57
2018-01-20T08:48:39.696Z,3.57
2018-01-20T08:51:07.409Z,3.50
2018-01-20T08:53:35.146Z,3.33
2018-01-20T08:56:02.713Z,3.63
2018-01-20T08:58:30.275Z,4.40
2018-01-20T09:00:57.848Z,2.97
2018-01-20T09:03:26.151Z,5.20
2018-01-20T09:05:53.753Z,3.80
2018-01-20T09:08:22.224Z,3.70
2018-01-20T09:10:49.865Z,13.80
2018-01-20T09:13:17.450Z,3.20
2018-01-20T09:15:45.011Z,5.30
2018-01-20T09:18:12.568Z,7.97
2018-01-20T09:20:40.126Z,3.50
2018-01-20T09:23:08.616Z,2.97
2018-01-20T09:25:36.261Z,2.97
2018-01-20T09:28:03.910Z,4.10
2018-01-20T09:30:33.271Z,2.63
2018-01-20T09:33:00.821Z,3.87
2018-01-20T09:35:28.413Z,2.30
2018-01-20T09:37:56.024Z,4.63
2018-01-20T09:40:23.636Z,3.40
2018-01-20T09:42:51.253Z,2.57
2018-01-20T09:45:19.202Z,3.80
2018-01-20T09:47:46.757Z,2.87
2018-01-20T09:50:14.342Z,2.90
2018-01-20T09:52:41.944Z,3.03
2018-01-20T09:55:09.959Z,3.53
2018-01-20T09:57:37.581Z,3.87
2018-01-20T10:00:05.343Z,2.90
2018-01-20T10:02:32.942Z,2.30
2018-01-20T10:05:00.545Z,2.50
2018-01-20T10:07:28.140Z,1.90
2018-01-20T10:09:55.692Z,1.97
2018-01-20T10:12:23.320Z,2.17
2018-01-20T10:14:50.877Z,2.50
2018-01-20T10:17:18.706Z,2.77
2018-01-20T10:19:46.253Z,2.70
2018-01-20T10:22:14.050Z,4.03
2018-01-20T10:24:41.685Z,3.03
2018-01-20T10:27:09.666Z,3.90
2018-01-20T10:29:37.280Z,2.63
2018-01-20T10:32:04.842Z,2.03
2018-01-20T10:34:32.415Z,1.73
2018-01-20T10:37:00.050Z,1.87
2018-01-20T10:39:28.571Z,1.40
2018-01-20T10:41:56.113Z,1.43
2018-01-20T10:44:23.913Z,1.90
2018-01-20T10:46:51.623Z,2.37
2018-01-20T10:49:19.181Z,2.47
2018-01-20T10:51:46.756Z,2.10
2018-01-20T10:54:14.352Z,2.13
2018-01-20T10:56:41.895Z,2.17
2018-01-20T10:59:09.458Z,2.30
2018-01-20T11:01:40.701Z,1.97
2018-01-20T11:04:08.308Z,1.90
2018-01-20T11:06:35.872Z,1.63
2018-01-20T11:09:03.697Z,2.40
2018-01-20T11:11:31.342Z,2.03
2018-01-20T11:13:59.008Z,1.63
2018-01-20T11:16:26.610Z,1.50
2018-01-20T11:18:54.176Z,1.70
2018-01-20T11:21:21.776Z,2.00
2018-01-20T11:23:49.364Z,1.57
2018-01-20T11:26:17.765Z,2.00
2018-01-20T11:28:45.384Z,2.00
2018-01-20T11:31:12.962Z,2.20
2018-01-20T11:33:41.054Z,1.90
2018-01-20T11:36:08.693Z,2.73
2018-01-20T11:38:36.307Z,1.90
2018-01-20T11:41:03.925Z,2.37
2018-01-20T11:43:31.751Z,2.03
2018-01-20T11:45:59.319Z,2.93
2018-01-20T11:48:26.871Z,2.80
2018-01-20T11:50:55.562Z,3.00
2018-01-20T11:53:23.167Z,4.00
2018-01-20T11:55:51.032Z,3.27
2018-01-20T11:58:18.612Z,2.60
2018-01-20T12:00:47.993Z,3.00
2018-01-20T12:03:15.582Z,5.47
2018-01-20T12:05:43.197Z,1.87
2018-01-20T12:08:10.772Z,1.87
2018-01-20T12:10:38.375Z,1.47
2018-01-20T12:13:06.304Z,0.90
2018-01-20T12:15:34.108Z,1.60
2018-01-20T12:18:02.043Z,0.90
2018-01-20T12:20:30.691Z,1.20
2018-01-20T12:22:58.274Z,1.20
2018-01-20T12:25:26.235Z,1.70
2018-01-20T12:27:53.842Z,1.73
2018-01-20T12:30:21.471Z,2.10
2018-01-20T12:32:49.033Z,1.90
2018-01-20T12:35:17.126Z,1.80
2018-01-20T12:37:44.908Z,1.97
2018-01-20T12:40:12.484Z,2.47
2018-01-20T12:42:40.111Z,2.50
2018-01-20T12:45:07.688Z,2.50
2018-01-20T12:47:35.282Z,1.93
2018-01-20T12:50:03.089Z,1.87
2018-01-20T12:52:30.704Z,1.80
2018-01-20T12:54:58.240Z,1.93
2018-01-20T12:57:27.734Z,1.87
2018-01-20T12:59:55.508Z,2.27
2018-01-20T13:02:23.080Z,1.80
2018-01-20T13:04:50.616Z,1.50
2018-01-20T13:07:18.172Z,2.17
2018-01-20T13:09:46.727Z,1.73
2018-01-20T13:12:14.310Z,1.90
2018-01-20T13:14:41.907Z,2.47
2018-01-20T13:17:10.187Z,2.23
2018-01-20T13:19:37.715Z,2.13
2018-01-20T13:22:05.266Z,2.07
2018-01-20T13:24:32.788Z,2.37
2018-01-20T13:27:00.317Z,1.90
2018-01-20T13:29:27.857Z,2.10
2018-01-20T13:31:55.419Z,10.90
2018-01-20T13:34:24.133Z,3.20
2018-01-20T13:36:51.663Z,3.60
2018-01-20T13:39:19.482Z,3.33
2018-01-20T13:41:47.085Z,2.70
2018-01-20T13:44:14.681Z,3.00
2018-01-20T13:46:42.249Z,3.90
2018-01-20T13:49:10.815Z,3.40
2018-01-20T13:51:38.570Z,3.43
2018-01-20T13:54:06.179Z,3.87
2018-01-20T13:56:33.763Z,2.80
2018-01-20T13:59:01.359Z,2.07
2018-01-20T14:01:28.890Z,2.60
2018-01-20T14:03:56.452Z,2.50
2018-01-20T14:06:25.042Z,2.10
2018-01-20T14:08:52.603Z,2.57
2018-01-20T14:11:20.180Z,2.17
2018-01-20T14:13:47.790Z,2.10
2018-01-20T14:16:15.354Z,3.03
2018-01-20T14:18:42.906Z,2.60
2018-01-20T14:21:11.185Z,2.20
2018-01-20T14:23:38.768Z,2.47
2018-01-20T14:26:06.398Z,2.67
2018-01-20T14:28:33.982Z,3.27
2018-01-20T14:31:01.564Z,2.93
2018-01-20T14:33:29.390Z,2.93
2018-01-20T14:35:57.063Z,2.47
2018-01-20T14:38:24.988Z,2.50
2018-01-20T14:40:52.589Z,2.50
2018-01-20T14:43:20.680Z,2.93
2018-01-20T14:45:48.239Z,2.13
2018-01-20T14:48:16.085Z,1.97
2018-01-20T14:50:43.730Z,2.43
2018-01-20T14:53:12.896Z,2.57
2018-01-20T14:55:40.477Z,3.33
2018-01-20T14:58:08.119Z,3.30
2018-01-20T15:00:35.721Z,2.70
2018-01-20T15:03:03.335Z,3.80
2018-01-20T15:05:32.452Z,3.17
2018-01-20T15:08:01.474Z,4.17
2018-01-20T15:10:29.164Z,3.80
2018-01-20T15:12:56.734Z,12.90
2018-01-20T15:15:25.225Z,6.63
2018-01-20T15:17:54.991Z,3.70
2018-01-20T15:20:22.552Z,3.37
2018-01-20T15:22:50.149Z,2.40
2018-01-20T15:25:19.654Z,2.70
2018-01-20T15:27:47.999Z,6.30
2018-01-20T15:30:15.737Z,5.80
2018-01-20T15:32:51.939Z,2.60
2018-01-20T15:35:22.793Z,3.07
2018-01-20T15:37:51.235Z,4.30
2018-01-20T15:40:18.917Z,11.20
2018-01-20T15:42:47.975Z,4.17
2018-01-20T15:45:15.977Z,2.50
2018-01-20T15:47:45.032Z,2.73
2018-01-20T15:50:12.671Z,2.40
2018-01-20T15:52:40.260Z,3.13
2018-01-20T15:55:08.121Z,2.60
2018-01-20T15:57:35.885Z,3.23
2018-01-20T16:00:03.705Z,3.97
2018-01-20T16:02:31.347Z,5.43
2018-01-20T16:04:58.992Z,9.43
2018-01-20T16:07:27.985Z,5.67
2018-01-20T16:09:55.514Z,8.50
2018-01-20T16:12:24.515Z,9.03
2018-01-20T16:14:52.267Z,8.10
2018-01-20T16:17:19.851Z,9.03
2018-01-20T16:19:47.430Z,11.30
2018-01-20T16:22:15.961Z,11.77
2018-01-20T16:24:43.538Z,10.23
2018-01-20T16:27:11.958Z,11.03
2018-01-20T16:29:39.532Z,9.87
2018-01-20T16:32:07.090Z,7.10
2018-01-20T16:34:34.682Z,7.10
2018-01-20T16:37:02.237Z,9.03
2018-01-20T16:39:30.478Z,17.10
2018-01-20T16:41:58.046Z,15.97
2018-01-20T16:44:25.642Z,16.77
2018-01-20T16:46:53.259Z,7.00
2018-01-20T16:49:21.503Z,9.33
2018-01-20T16:51:49.184Z,10.37
2018-01-20T16:54:16.717Z,4.50
2018-01-20T16:56:44.267Z,6.73
2018-01-20T16:59:12.068Z,5.27
2018-01-20T17:01:39.640Z,4.77
2018-01-20T17:04:07.318Z,7.00
2018-01-20T17:06:34.881Z,16.43
2018-01-20T17:09:02.712Z,20.00
2018-01-20T17:11:30.515Z,20.10
2018-01-20T17:13:58.092Z,15.60
2018-01-20T17:16:25.685Z,13.80
2018-01-20T17:18:53.365Z,10.20
2018-01-20T17:21:20.932Z,8.57
2018-01-20T17:23:48.484Z,7.97
2018-01-20T17:26:16.141Z,8.13
2018-01-20T17:28:43.780Z,7.97
2018-01-20T17:31:12.089Z,6.93
2018-01-20T17:36:13.740Z,7.07
2018-01-20T17:38:41.323Z,6.90
2018-01-20T17:41:09.269Z,6.93
2018-01-20T17:43:36.850Z,6.80
2018-01-20T17:46:04.499Z,5.97
2018-01-20T17:48:32.071Z,6.70
2018-01-20T17:50:59.697Z,7.20
2018-01-20T17:53:27.994Z,6.60
2018-01-20T17:55:55.609Z,6.77
2018-01-20T17:58:23.216Z,6.87
2018-01-20T18:00:50.791Z,11.97
2018-01-20T18:03:18.344Z,10.93
2018-01-20T18:05:46.834Z,10.07
2018-01-20T18:08:14.403Z,11.57
2018-01-20T18:10:41.989Z,9.40
2018-01-20T18:13:10.640Z,7.30
2018-01-20T18:15:38.369Z,7.93
2018-01-20T18:18:06.039Z,8.03
2018-01-20T18:20:35.127Z,7.60
2018-01-20T18:23:02.827Z,10.00
2018-01-20T18:25:30.621Z,13.87
2018-01-20T18:27:58.188Z,12.37
2018-01-20T18:30:25.804Z,14.30
2018-01-20T18:32:53.370Z,14.87
2018-01-20T18:35:20.947Z,14.20
2018-01-20T18:37:48.578Z,33.13
2018-01-20T18:40:16.229Z,49.13
2018-01-20T18:42:43.791Z,25.43
2018-01-20T18:45:12.060Z,35.20
2018-01-20T18:47:39.619Z,25.90
2018-01-20T18:50:07.215Z,14.20
2018-01-20T18:52:34.798Z,9.70
2018-01-20T18:55:02.345Z,6.40
2018-01-20T18:57:29.995Z,5.60
2018-01-20T18:59:57.580Z,6.20
2018-01-20T19:02:25.419Z,40.03
2018-01-20T19:04:53.739Z,30.73
2018-01-20T19:07:24.164Z,33.07
2018-01-20T19:09:51.747Z,26.77
2018-01-20T19:12:19.541Z,20.57
2018-01-20T19:14:47.139Z,16.30
2018-01-20T19:17:17.279Z,13.90
2018-01-20T19:19:47.549Z,14.00
2018-01-20T19:22:15.177Z,9.57
2018-01-20T19:24:43.980Z,7.20
2018-01-20T19:27:12.931Z,5.30
2018-01-20T19:29:40.913Z,5.83
2018-01-20T19:32:10.960Z,5.00
2018-01-20T19:34:39.210Z,2.80
2018-01-20T19:37:07.667Z,3.30
2018-01-20T19:39:35.609Z,24.47
2018-01-20T19:42:03.251Z,18.40
2018-01-20T19:44:30.834Z,11.47
2018-01-20T19:46:59.398Z,18.20
2018-01-20T19:49:27.008Z,15.23
2018-01-20T19:51:54.590Z,9.80
2018-01-20T19:54:25.987Z,9.60
2018-01-20T19:56:59.215Z,12.73
2018-01-20T19:59:26.869Z,11.17
2018-01-20T20:01:54.488Z,10.57
2018-01-20T20:04:22.088Z,9.17
2018-01-20T20:06:49.639Z,6.50
2018-01-20T20:09:17.243Z,17.30
2018-01-20T20:11:44.839Z,25.10
2018-01-20T20:14:12.458Z,15.57
2018-01-20T20:16:40.024Z,13.83
2018-01-20T20:19:08.328Z,11.50
2018-01-20T20:21:35.951Z,10.50
2018-01-20T20:24:03.540Z,8.43
2018-01-20T20:26:31.154Z,8.63
2018-01-20T20:28:58.728Z,7.07
2018-01-20T20:31:26.818Z,7.30
2018-01-20T20:33:54.426Z,18.13
2018-01-20T20:36:22.048Z,11.57
2018-01-20T20:38:49.874Z,9.67
2018-01-20T20:41:17.606Z,11.17
2018-01-20T20:43:45.342Z,8.93
2018-01-20T20:46:12.951Z,6.63
2018-01-20T20:48:40.528Z,5.73
2018-01-20T20:51:08.163Z,6.07
2018-01-20T20:53:35.731Z,6.13
2018-01-20T20:56:03.335Z,5.50
2018-01-20T20:58:30.961Z,4.50
2018-01-20T21:00:58.530Z,3.90
2018-01-20T21:03:27.797Z,5.30
2018-01-20T21:05:55.403Z,4.80
2018-01-20T21:08:23.393Z,3.47
2018-01-20T21:10:51.114Z,3.10
2018-01-20T21:13:18.719Z,2.20
2018-01-20T21:15:46.276Z,4.47
2018-01-20T21:18:13.860Z,3.10
2018-01-20T21:20:41.460Z,11.90
2018-01-20T21:23:09.328Z,20.00
2018-01-20T21:25:37.419Z,27.50
2018-01-20T21:28:05.026Z,31.90
2018-01-20T21:30:34.620Z,37.80
2018-01-20T21:33:02.213Z,32.60
2018-01-20T21:35:29.838Z,26.53
2018-01-20T21:37:57.452Z,31.00
2018-01-20T21:40:25.048Z,35.33
2018-01-20T21:42:52.602Z,33.13
2018-01-20T21:45:20.337Z,29.20
2018-01-20T21:47:48.061Z,32.37
2018-01-20T21:50:15.721Z,15.77
2018-01-20T21:52:43.678Z,11.60
2018-01-20T21:55:11.991Z,12.73
2018-01-20T21:57:39.587Z,10.63
2018-01-20T22:00:08.773Z,9.47
2018-01-20T22:02:38.793Z,8.50
2018-01-20T22:05:06.969Z,6.67
2018-01-20T22:07:34.563Z,4.00
2018-01-20T22:10:02.187Z,6.00
2018-01-20T22:12:29.774Z,7.80
2018-01-20T22:14:57.360Z,11.00
2018-01-20T22:17:24.964Z,14.70
2018-01-20T22:19:52.560Z,19.90
2018-01-20T22:22:20.873Z,15.13
2018-01-20T22:24:48.457Z,12.77
2018-01-20T22:27:16.167Z,14.30
2018-01-20T22:29:43.823Z,12.00
2018-01-20T22:32:11.700Z,8.40
2018-01-20T22:34:39.495Z,6.70
2018-01-20T22:37:07.934Z,16.30
2018-01-20T22:39:35.545Z,17.30
2018-01-20T22:42:03.143Z,10.90
2018-01-20T22:44:30.811Z,9.50
2018-01-20T22:46:58.395Z,11.77
2018-01-20T22:49:26.186Z,10.83
2018-01-20T22:51:53.822Z,8.60
2018-01-20T22:54:21.398Z,11.17
2018-01-20T22:56:49.183Z,9.93
2018-01-20T22:59:16.862Z,11.57
2018-01-20T23:01:45.805Z,10.20
2018-01-20T23:04:13.457Z,12.27
2018-01-20T23:06:41.087Z,10.70
2018-01-20T23:09:08.811Z,9.93
2018-01-20T23:11:36.709Z,9.10
2018-01-20T23:14:04.302Z,9.80
2018-01-20T23:16:31.898Z,16.87
2018-01-20T23:19:05.193Z,14.87
2018-01-20T23:21:36.295Z,13.00
2018-01-20T23:24:04.104Z,13.50
2018-01-20T23:26:32.412Z,15.40
2018-01-20T23:29:01.922Z,5.97
2018-01-20T23:31:29.502Z,14.00
2018-01-20T23:33:57.084Z,16.47
2018-01-20T23:36:24.672Z,12.03
2018-01-20T23:38:52.304Z,8.83
2018-01-20T23:41:20.604Z,11.73
2018-01-20T23:43:48.580Z,10.63
2018-01-20T23:46:16.190Z,8.57
2018-01-20T23:48:44.070Z,9.13
2018-01-20T23:51:12.903Z,7.73
2018-01-20T23:53:40.534Z,9.03
2018-01-20T23:56:08.095Z,9.57
2018-01-20T23:58:35.688Z,9.80
